Terminal Aerodrome Forecast
Issued by NWS

Home | Current Version | Previous Version | Text Only | Print | Product List | Glossary On
Versions: 1 2 3 4 5 6 7 8 9 10 11 12 13 14 15 16 17 18
000
FTUS41 KILN 301300 AAA
TAFLUK
TAF AMD
KLUK 301321Z 3013/0112 00000KT 3SM BR FEW003
     FM301400 VRB04KT P6SM SCT015
     FM301600 31010KT P6SM BKN040
     FM010000 02004KT P6SM SCT040
     FM010400 00000KT 3SM BR SKC
     FM010800 00000KT 1SM BR VV001=

USA.gov is the U.S. government's official web portal to all federal, state and local government web resources and services.